• Join FlightAware (Why Join?)
  • Login
  • US Flag 
07:01PM EDT


 

Airport Tracker/Info


-or-


 

Live Flight TrackerFlight Track Log ✈ CTL14 ✈ 23-Apr-2013 ✈ KPWK - KOSU

Flight Track Log - Related Links

Times and Time Zones

All times are in EDT time to prevent confusion due to time zone crossing. See the CTL14 flight status page for this flight to view local times or setup timezone preferences in your user account.

Time Position Orientation Groundspeed Altitude Reporting Facility
EDT Latitude Longitude Course Direction KTS MPH feet Rate Location/Type
12:27AM 42.1667 -87.8833 37° Northeast 118 136 3,000  Level Chicago TRACON
12:28AM 42.1667 -87.8333 90° East 128 147 3,900 480 Climbing Chicago TRACON
12:29AM 42.1667 -87.7833 90° East 156 180 4,000  Climbing Chicago TRACON
12:30AM 42.1667 -87.7167 90° East 171 197 4,000 360 Level Chicago TRACON
12:31AM 42.1678 -87.6517 89° East 161 185 4,800 600 Climbing Chicago Center
12:32AM 42.1722 -87.5931 84° East 160 184 5,300 480 Climbing Chicago Center
12:33AM 42.1731 -87.5331 89° East 160 184 5,800 300 Climbing Chicago Center
12:34AM 42.1744 -87.4708 88° East 166 191 6,000 60 Climbing Chicago Center
12:35AM 42.1514 -87.4108 117° Southeast 179 206 6,000  Level Chicago Center
12:36AM 42.1219 -87.3561 126° Southeast 178 205 6,000  Level Chicago Center
12:37AM 42.0983 -87.2947 117° Southeast 181 208 6,000  Level Chicago Center
12:38AM 42.0728 -87.2372 121° Southeast 181 208 6,000  Level Chicago Center
12:39AM 42.0447 -87.1781 123° Southeast 183 211 6,000  Level Chicago Center
12:40AM 42.0181 -87.1186 121° Southeast 185 213 6,000  Level Chicago Center
12:41AM 41.9922 -87.0594 120° Southeast 183 211 6,000 -60 Level Chicago Center
12:42AM 41.9656 -87.0017 122° Southeast 183 211 5,900  Descending Chicago Center
12:43AM 41.9372 -86.9458 124° Southeast 181 208 6,000  Climbing Chicago Center
12:44AM 41.9086 -86.8886 124° Southeast 182 209 6,000  Level Chicago Center
12:45AM 41.8792 -86.8306 124° Southeast 186 214 6,000  Level Chicago Center
12:46AM 41.8533 -86.7728 121° Southeast 184 212 6,000  Level Chicago Center
12:47AM 41.8281 -86.7142 120° Southeast 182 209 6,000  Level Chicago Center
12:48AM 41.7997 -86.6550 123° Southeast 181 208 6,000 120 Level Chicago Center
12:49AM 41.7719 -86.6019 125° Southeast 177 204 6,300 300 Climbing Chicago Center
12:50AM 41.7461 -86.5519 125° Southeast 168 193 6,600 240 Climbing Chicago Center
12:51AM 41.7239 -86.5003 120° Southeast 163 188 6,900 180 Climbing Chicago Center
12:52AM 41.6989 -86.4469 122° Southeast 166 191 7,000  Climbing Chicago Center
12:53AM 41.6778 -86.3914 117° Southeast 167 192 7,000  Level Chicago Center
12:54AM 41.6483 -86.3403 128° Southeast 171 197 7,000  Level Chicago Center
12:55AM 41.6194 -86.2872 126° Southeast 174 200 7,000  Level Chicago Center
12:56AM 41.5961 -86.2331 120° Southeast 172 198 7,100  Climbing Chicago Center
12:57AM 41.5694 -86.1756 122° Southeast 178 205 7,000 -60 Descending Chicago Center
12:58AM 41.5414 -86.1239 126° Southeast 175 201 7,000 -120 Level Chicago Center
12:59AM 41.5081 -86.0617 126° Southeast 172 198 6,800  Descending Chicago Center
01:00AM 41.4833 -86.0106 123° Southeast 168 193 7,000 120 Climbing Chicago Center
01:01AM 41.4611 -85.9553 118° Southeast 169 194 7,100 60 Climbing Chicago Center
01:02AM 41.4358 -85.9008 122° Southeast 172 198 7,200  Climbing Chicago Center
01:03AM 41.4117 -85.8428 119° Southeast 178 205 7,200  Level Chicago Center
01:04AM 41.3856 -85.7869 122° Southeast 181 208 7,200  Level Chicago Center
01:05AM 41.3603 -85.7278 120° Southeast 183 211 7,200 -120 Level Chicago Center
01:06AM 41.3353 -85.6708 120° Southeast 182 209 7,000 -60 Descending Chicago Center
01:07AM 41.3053 -85.6214 129° Southeast 177 204 7,100  Climbing Chicago Center
01:08AM 41.2786 -85.5650 122° Southeast 178 205 7,100  Level Chicago Center
01:09AM 41.2508 -85.5089 123° Southeast 180 207 7,100  Level Chicago Center
01:10AM 41.2233 -85.4536 123° Southeast 181 208 7,100  Level Chicago Center
01:11AM 41.1947 -85.4003 125° Southeast 180 207 7,100 -60 Level Chicago Center
01:12AM 41.1653 -85.3489 127° Southeast 178 205 7,000  Descending Chicago Center
01:13AM 41.1361 -85.3011 129° Southeast 172 198 7,100 60 Climbing Chicago Center
01:14AM 41.1111 -85.2450 121° Southeast 174 200 7,200  Climbing Chicago Center
01:15AM 41.0808 -85.1936 128° Southeast 177 204 7,100 -60 Descending Chicago Center
01:16AM 41.0578 -85.1325 117° Southeast 185 213 7,100  Level Chicago Center
01:17AM 41.0308 -85.0767 123° Southeast 183 211 7,200 -60 Climbing Chicago Center
01:18AM 41.0033 -85.0197 123° Southeast 182 209 7,000 -180 Descending Chicago Center
01:19AM 40.9761 -84.9639 123° Southeast 183 211 6,900 -60 Descending Chicago Center
01:20AM 40.9461 -84.9128 128° Southeast 177 204 6,900 60 Level Chicago Center
01:21AM 40.9183 -84.8572 123° Southeast 181 208 7,100 60 Climbing Chicago Center
01:22AM 40.8919 -84.7981 121° Southeast 186 214 7,100 -120 Level Chicago Center
01:23AM 40.8644 -84.7394 122° Southeast 186 214 6,900 -60 Descending Chicago Center
01:24AM 40.8406 -84.6811 118° Southeast 184 212 7,000  Climbing Chicago Center
01:25AM 40.8161 -84.6219 119° Southeast 184 212 7,000  Level Chicago Center
01:26AM 40.7903 -84.5669 122° Southeast 180 207 7,100  Climbing Chicago Center
01:28AM 40.7342 -84.4447 121° Southeast 179 206 7,100 -60 Level Indianapolis Center
01:29AM 40.7069 -84.3844 121° Southeast 186 214 7,000 -60 Descending Indianapolis Center
01:30AM 40.6811 -84.3269 121° Southeast 184 212 7,000  Level Indianapolis Center
01:31AM 40.6514 -84.2739 126° Southeast 181 208 7,000  Level Indianapolis Center
01:32AM 40.6211 -84.2172 125° Southeast 183 211 7,000  Level Indianapolis Center
01:33AM 40.5942 -84.1583 121° Southeast 185 213 7,000  Level Indianapolis Center
01:34AM 40.5703 -84.1078 122° Southeast 188 216 7,000  Level Indianapolis Center
01:35AM 40.5475 -84.0625 123° Southeast 187 215 7,000  Level Indianapolis Center
01:35AM 40.5414 -84.0508 125° Southeast 188 216 7,000  Level Indianapolis Center
01:36AM 40.5183 -84.0067 124° Southeast 187 215 7,000  Level Indianapolis Center
01:36AM 40.5147 -83.9914 107° East 187 215 7,000 -240 Level Indianapolis Center
01:37AM 40.4894 -83.9450 126° Southeast 190 219 6,800 -300 Descending Indianapolis Center
01:37AM 40.4856 -83.9325 112° Southeast 190 219 6,700 -540 Descending Indianapolis Center
01:38AM 40.4606 -83.8839 124° Southeast 208 239 6,300 -420 Descending Indianapolis Center
01:38AM 40.4542 -83.8694 120° Southeast 200 230 6,300 -300 Level Indianapolis Center
01:39AM 40.4275 -83.8247 128° Southeast 199 229 6,000 -420 Descending Indianapolis Center
01:39AM 40.4219 -83.8089 115° Southeast 202 232 5,900 -540 Descending Indianapolis Center
01:40AM 40.3983 -83.7633 124° Southeast 195 224 5,500 -600 Descending Indianapolis Center
01:40AM 40.3922 -83.7483 118° Southeast 199 229 5,300 -420 Descending Indianapolis Center
01:41AM 40.3672 -83.7047 127° Southeast 198 228 5,100 -300 Descending Indianapolis Center
01:41AM 40.3619 -83.6872 112° Southeast 197 227 5,000 -540 Descending Indianapolis Center
01:42AM 40.3403 -83.6439 123° Southeast 196 226 4,600 -600 Descending Indianapolis Center
01:42AM 40.3328 -83.6256 118° Southeast 197 227 4,400 -720 Descending Indianapolis Center
01:43AM 40.3111 -83.5828 124° Southeast 191 220 3,900 -840 Descending Indianapolis Center
01:43AM 40.3039 -83.5669 121° Southeast 194 223 3,600 -600 Descending Indianapolis Center
01:44AM 40.2800 -83.5242 126° Southeast 189 217 3,300 -540 Descending Indianapolis Center
01:44AM 40.2756 -83.5097 112° Southeast 190 219 3,100 -300 Descending Indianapolis Center
01:45AM 40.2547 -83.4664 122° Southeast 181 208 3,000 -240 Descending Indianapolis Center
01:45AM 40.2492 -83.4544 121° Southeast 183 211 2,900  Descending Indianapolis Center
01:46AM 40.2314 -83.4144 120° Southeast 167 192 3,000 60 Climbing Indianapolis Center
01:46AM 40.2261 -83.4006 116° Southeast 175 201 3,000  Level Indianapolis Center
01:47AM 40.2078 -83.3622 122° Southeast 161 185 3,000  Level Indianapolis Center
01:47AM 40.2044 -83.3489 108° East 166 191 3,000  Level Indianapolis Center
01:48AM 40.1883 -83.3108 119° Southeast 158 182 3,000 60 Level Indianapolis Center
01:48AM 40.1817 -83.2986 126° Southeast 162 186 3,100 -240 Climbing Indianapolis Center
01:49AM 40.1625 -83.2614 124° Southeast 164 189 2,800 -420 Descending Indianapolis Center
01:49AM 40.1575 -83.2467 114° Southeast 163 188 2,700 -420 Descending Indianapolis Center
01:50AM 40.1367 -83.2144 130° Southeast 158 182 2,400 -420 Descending Indianapolis Center
01:50AM 40.1317 -83.1997 114° Southeast 161 185 2,300 -300 Descending Indianapolis Center
01:51AM 40.1106 -83.1678 131° Southeast 149 171 2,100 -240 Descending Indianapolis Center
01:51AM 40.1061 -83.1572 119° Southeast 154 177 2,100 -420 Level Indianapolis Center
01:52AM 40.0858 -83.1294 134° Southeast 137 158 1,700 -420 Descending Indianapolis Center
01:52AM 40.0814 -83.1208 124° Southeast 143 165 1,700 -420 Level Indianapolis Center
01:53AM 40.0761 -83.0819 100° East 131 151 1,200 -540 Descending Indianapolis Center
01:55AM 40.0798 -83.0732 123° Southeast  Level Estimated